sensor_id;sensor_type;location;lat;lon;timestamp;P1;durP1;ratioP1;P2;durP2;ratioP2
66966;SDS011;53900;51.468;-2.586;2023-06-19T00:00:52;11.48;;;5.00;;
66966;SDS011;53900;51.468;-2.586;2023-06-19T00:03:17;14.10;;;5.10;;
66966;SDS011;53900;51.468;-2.586;2023-06-19T00:05:42;9.43;;;4.90;;
66966;SDS011;53900;51.468;-2.586;2023-06-19T00:08:08;15.38;;;5.63;;
66966;SDS011;53900;51.468;-2.586;2023-06-19T00:10:33;11.93;;;5.40;;
66966;SDS011;53900;51.468;-2.586;2023-06-19T00:12:58;8.50;;;4.68;;
66966;SDS011;53900;51.468;-2.586;2023-06-19T00:15:23;11.80;;;5.35;;
66966;SDS011;53900;51.468;-2.586;2023-06-19T00:17:49;10.10;;;4.63;;
66966;SDS011;53900;51.468;-2.586;2023-06-19T00:20:14;12.65;;;4.97;;
66966;SDS011;53900;51.468;-2.586;2023-06-19T00:22:40;10.43;;;4.55;;
66966;SDS011;53900;51.468;-2.586;2023-06-19T00:25:05;9.00;;;4.88;;
66966;SDS011;53900;51.468;-2.586;2023-06-19T00:27:31;13.48;;;5.57;;
66966;SDS011;53900;51.468;-2.586;2023-06-19T00:29:56;9.68;;;4.85;;
66966;SDS011;53900;51.468;-2.586;2023-06-19T00:32:27;9.07;;;4.82;;
66966;SDS011;53900;51.468;-2.586;2023-06-19T00:34:52;9.52;;;4.75;;
66966;SDS011;53900;51.468;-2.586;2023-06-19T00:37:17;11.77;;;5.45;;
66966;SDS011;53900;51.468;-2.586;2023-06-19T00:39:43;11.85;;;5.07;;
66966;SDS011;53900;51.468;-2.586;2023-06-19T00:42:08;14.50;;;5.15;;
66966;SDS011;53900;51.468;-2.586;2023-06-19T00:44:33;10.15;;;4.90;;
66966;SDS011;53900;51.468;-2.586;2023-06-19T00:46:58;11.82;;;5.47;;
66966;SDS011;53900;51.468;-2.586;2023-06-19T00:49:25;10.63;;;5.32;;
66966;SDS011;53900;51.468;-2.586;2023-06-19T00:51:51;8.02;;;4.75;;
66966;SDS011;53900;51.468;-2.586;2023-06-19T00:54:16;8.98;;;4.95;;
66966;SDS011;53900;51.468;-2.586;2023-06-19T00:56:42;7.88;;;5.10;;
66966;SDS011;53900;51.468;-2.586;2023-06-19T00:59:11;11.00;;;5.30;;
66966;SDS011;53900;51.468;-2.586;2023-06-19T01:01:38;11.40;;;4.85;;
66966;SDS011;53900;51.468;-2.586;2023-06-19T01:04:03;13.57;;;5.25;;
66966;SDS011;53900;51.468;-2.586;2023-06-19T01:06:30;14.13;;;5.32;;
66966;SDS011;53900;51.468;-2.586;2023-06-19T01:09:04;9.60;;;5.63;;
66966;SDS011;53900;51.468;-2.586;2023-06-19T01:11:36;6.40;;;5.00;;
66966;SDS011;53900;51.468;-2.586;2023-06-19T01:14:09;10.63;;;5.20;;
66966;SDS011;53900;51.468;-2.586;2023-06-19T01:16:37;10.80;;;5.43;;
66966;SDS011;53900;51.468;-2.586;2023-06-19T01:19:03;11.25;;;5.30;;
66966;SDS011;53900;51.468;-2.586;2023-06-19T01:21:30;10.48;;;5.38;;
66966;SDS011;53900;51.468;-2.586;2023-06-19T01:23:55;10.35;;;5.28;;
66966;SDS011;53900;51.468;-2.586;2023-06-19T01:26:21;9.85;;;4.90;;
66966;SDS011;53900;51.468;-2.586;2023-06-19T01:28:51;13.07;;;5.63;;
66966;SDS011;53900;51.468;-2.586;2023-06-19T01:31:25;9.40;;;4.88;;
66966;SDS011;53900;51.468;-2.586;2023-06-19T01:33:50;16.08;;;5.80;;
66966;SDS011;53900;51.468;-2.586;2023-06-19T01:36:17;8.52;;;5.07;;
66966;SDS011;53900;51.468;-2.586;2023-06-19T01:38:43;11.55;;;6.07;;
66966;SDS011;53900;51.468;-2.586;2023-06-19T01:41:09;11.10;;;5.55;;
66966;SDS011;53900;51.468;-2.586;2023-06-19T01:43:34;13.88;;;6.70;;
66966;SDS011;53900;51.468;-2.586;2023-06-19T01:46:00;11.65;;;5.90;;
66966;SDS011;53900;51.468;-2.586;2023-06-19T01:48:25;15.35;;;6.18;;
66966;SDS011;53900;51.468;-2.586;2023-06-19T01:50:51;11.07;;;5.40;;
66966;SDS011;53900;51.468;-2.586;2023-06-19T01:53:16;11.90;;;5.55;;
66966;SDS011;53900;51.468;-2.586;2023-06-19T01:55:41;10.52;;;5.25;;
66966;SDS011;53900;51.468;-2.586;2023-06-19T01:58:07;9.65;;;4.93;;
66966;SDS011;53900;51.468;-2.586;2023-06-19T02:00:32;12.20;;;5.28;;
66966;SDS011;53900;51.468;-2.586;2023-06-19T02:03:00;9.25;;;5.45;;
66966;SDS011;53900;51.468;-2.586;2023-06-19T02:05:25;11.25;;;5.38;;
66966;SDS011;53900;51.468;-2.586;2023-06-19T02:07:51;8.95;;;5.57;;
66966;SDS011;53900;51.468;-2.586;2023-06-19T02:10:16;9.15;;;5.20;;
66966;SDS011;53900;51.468;-2.586;2023-06-19T02:12:41;9.65;;;4.95;;
66966;SDS011;53900;51.468;-2.586;2023-06-19T02:15:06;8.52;;;4.95;;
66966;SDS011;53900;51.468;-2.586;2023-06-19T02:17:32;9.55;;;5.28;;
66966;SDS011;53900;51.468;-2.586;2023-06-19T02:19:57;13.23;;;6.00;;
66966;SDS011;53900;51.468;-2.586;2023-06-19T02:22:23;8.23;;;5.30;;
66966;SDS011;53900;51.468;-2.586;2023-06-19T02:24:48;12.60;;;6.00;;
66966;SDS011;53900;51.468;-2.586;2023-06-19T02:27:13;12.52;;;5.95;;
66966;SDS011;53900;51.468;-2.586;2023-06-19T02:29:40;10.13;;;5.68;;
66966;SDS011;53900;51.468;-2.586;2023-06-19T02:32:06;10.45;;;5.82;;
66966;SDS011;53900;51.468;-2.586;2023-06-19T02:34:31;9.00;;;5.35;;
66966;SDS011;53900;51.468;-2.586;2023-06-19T02:36:56;8.93;;;5.50;;
66966;SDS011;53900;51.468;-2.586;2023-06-19T02:39:22;10.20;;;5.40;;
66966;SDS011;53900;51.468;-2.586;2023-06-19T02:41:48;7.72;;;5.43;;
66966;SDS011;53900;51.468;-2.586;2023-06-19T02:44:13;8.07;;;5.20;;
66966;SDS011;53900;51.468;-2.586;2023-06-19T02:46:39;8.52;;;5.38;;
66966;SDS011;53900;51.468;-2.586;2023-06-19T02:49:04;12.60;;;5.57;;
66966;SDS011;53900;51.468;-2.586;2023-06-19T02:51:29;10.55;;;5.43;;
66966;SDS011;53900;51.468;-2.586;2023-06-19T02:53:54;9.35;;;5.78;;
66966;SDS011;53900;51.468;-2.586;2023-06-19T02:56:19;11.82;;;5.60;;
66966;SDS011;53900;51.468;-2.586;2023-06-19T02:58:45;9.55;;;5.70;;
66966;SDS011;53900;51.468;-2.586;2023-06-19T03:01:10;14.50;;;4.88;;
66966;SDS011;53900;51.468;-2.586;2023-06-19T03:03:35;12.55;;;5.50;;
66966;SDS011;53900;51.468;-2.586;2023-06-19T03:06:07;10.10;;;5.13;;
66966;SDS011;53900;51.468;-2.586;2023-06-19T03:08:35;8.80;;;5.03;;
66966;SDS011;53900;51.468;-2.586;2023-06-19T03:11:00;12.82;;;5.38;;
66966;SDS011;53900;51.468;-2.586;2023-06-19T03:13:26;11.32;;;5.80;;
66966;SDS011;53900;51.468;-2.586;2023-06-19T03:15:51;11.18;;;5.18;;
66966;SDS011;53900;51.468;-2.586;2023-06-19T03:18:16;10.68;;;5.88;;
66966;SDS011;53900;51.468;-2.586;2023-06-19T03:20:41;11.02;;;5.80;;
66966;SDS011;53900;51.468;-2.586;2023-06-19T03:23:07;10.60;;;6.10;;
66966;SDS011;53900;51.468;-2.586;2023-06-19T03:25:32;13.18;;;5.53;;
66966;SDS011;53900;51.468;-2.586;2023-06-19T03:28:00;10.73;;;5.25;;
66966;SDS011;53900;51.468;-2.586;2023-06-19T03:30:26;10.30;;;5.47;;
66966;SDS011;53900;51.468;-2.586;2023-06-19T03:32:51;8.55;;;5.00;;
66966;SDS011;53900;51.468;-2.586;2023-06-19T03:35:16;8.20;;;5.50;;
66966;SDS011;53900;51.468;-2.586;2023-06-19T03:37:41;9.82;;;5.38;;
66966;SDS011;53900;51.468;-2.586;2023-06-19T03:40:07;16.35;;;5.70;;
66966;SDS011;53900;51.468;-2.586;2023-06-19T03:42:34;12.30;;;5.18;;
66966;SDS011;53900;51.468;-2.586;2023-06-19T03:44:59;10.82;;;5.22;;
66966;SDS011;53900;51.468;-2.586;2023-06-19T03:47:25;11.20;;;5.32;;
66966;SDS011;53900;51.468;-2.586;2023-06-19T03:49:50;13.10;;;5.68;;
66966;SDS011;53900;51.468;-2.586;2023-06-19T03:52:15;9.18;;;5.15;;
66966;SDS011;53900;51.468;-2.586;2023-06-19T03:54:41;8.40;;;5.43;;
66966;SDS011;53900;51.468;-2.586;2023-06-19T03:57:06;13.18;;;5.65;;
66966;SDS011;53900;51.468;-2.586;2023-06-19T03:59:33;10.30;;;5.50;;
66966;SDS011;53900;51.468;-2.586;2023-06-19T04:01:58;11.95;;;5.47;;
66966;SDS011;53900;51.468;-2.586;2023-06-19T04:04:24;11.13;;;5.40;;
66966;SDS011;53900;51.468;-2.586;2023-06-19T04:06:49;15.20;;;5.97;;
66966;SDS011;53900;51.468;-2.586;2023-06-19T04:09:14;9.52;;;5.30;;
66966;SDS011;53900;51.468;-2.586;2023-06-19T04:11:39;11.70;;;5.40;;
66966;SDS011;53900;51.468;-2.586;2023-06-19T04:14:04;12.23;;;5.35;;
66966;SDS011;53900;51.468;-2.586;2023-06-19T04:16:30;10.98;;;5.82;;
66966;SDS011;53900;51.468;-2.586;2023-06-19T04:18:55;11.57;;;5.65;;
66966;SDS011;53900;51.468;-2.586;2023-06-19T04:21:20;11.00;;;5.70;;
66966;SDS011;53900;51.468;-2.586;2023-06-19T04:23:45;14.35;;;6.00;;
66966;SDS011;53900;51.468;-2.586;2023-06-19T04:26:10;11.90;;;5.72;;
66966;SDS011;53900;51.468;-2.586;2023-06-19T04:28:36;13.57;;;6.53;;
66966;SDS011;53900;51.468;-2.586;2023-06-19T04:31:04;12.50;;;5.63;;
66966;SDS011;53900;51.468;-2.586;2023-06-19T04:33:29;17.20;;;6.70;;
66966;SDS011;53900;51.468;-2.586;2023-06-19T04:35:54;14.20;;;5.82;;
66966;SDS011;53900;51.468;-2.586;2023-06-19T04:38:20;11.70;;;5.82;;
66966;SDS011;53900;51.468;-2.586;2023-06-19T04:40:48;15.13;;;6.10;;
66966;SDS011;53900;51.468;-2.586;2023-06-19T04:43:13;12.90;;;6.20;;
66966;SDS011;53900;51.468;-2.586;2023-06-19T04:45:39;8.90;;;5.32;;
66966;SDS011;53900;51.468;-2.586;2023-06-19T04:48:04;13.32;;;5.80;;
66966;SDS011;53900;51.468;-2.586;2023-06-19T04:50:29;12.52;;;5.68;;
66966;SDS011;53900;51.468;-2.586;2023-06-19T04:52:54;12.52;;;5.70;;
66966;SDS011;53900;51.468;-2.586;2023-06-19T04:55:20;14.05;;;6.15;;
66966;SDS011;53900;51.468;-2.586;2023-06-19T04:57:45;10.75;;;5.85;;
66966;SDS011;53900;51.468;-2.586;2023-06-19T05:00:10;15.32;;;5.95;;
66966;SDS011;53900;51.468;-2.586;2023-06-19T05:02:35;12.45;;;5.60;;
66966;SDS011;53900;51.468;-2.586;2023-06-19T05:05:01;10.73;;;6.05;;
66966;SDS011;53900;51.468;-2.586;2023-06-19T05:07:31;13.90;;;6.05;;
66966;SDS011;53900;51.468;-2.586;2023-06-19T05:09:57;15.20;;;6.47;;
66966;SDS011;53900;51.468;-2.586;2023-06-19T05:12:22;14.30;;;6.68;;
66966;SDS011;53900;51.468;-2.586;2023-06-19T05:14:47;13.98;;;6.93;;
66966;SDS011;53900;51.468;-2.586;2023-06-19T05:17:12;15.05;;;6.50;;
66966;SDS011;53900;51.468;-2.586;2023-06-19T05:19:38;14.95;;;6.68;;
66966;SDS011;53900;51.468;-2.586;2023-06-19T05:22:03;9.77;;;5.85;;
66966;SDS011;53900;51.468;-2.586;2023-06-19T05:24:28;17.40;;;7.18;;
66966;SDS011;53900;51.468;-2.586;2023-06-19T05:26:53;18.30;;;7.78;;
66966;SDS011;53900;51.468;-2.586;2023-06-19T05:29:19;16.50;;;7.97;;
66966;SDS011;53900;51.468;-2.586;2023-06-19T05:31:44;15.48;;;7.25;;
66966;SDS011;53900;51.468;-2.586;2023-06-19T05:34:09;14.73;;;7.35;;
66966;SDS011;53900;51.468;-2.586;2023-06-19T05:36:34;18.23;;;7.35;;
66966;SDS011;53900;51.468;-2.586;2023-06-19T05:39:00;17.67;;;7.80;;
66966;SDS011;53900;51.468;-2.586;2023-06-19T05:41:25;17.63;;;7.57;;
66966;SDS011;53900;51.468;-2.586;2023-06-19T05:43:50;13.55;;;7.15;;
66966;SDS011;53900;51.468;-2.586;2023-06-19T05:46:15;19.83;;;7.72;;
66966;SDS011;53900;51.468;-2.586;2023-06-19T05:48:41;16.67;;;7.60;;
66966;SDS011;53900;51.468;-2.586;2023-06-19T05:51:06;13.35;;;7.50;;
66966;SDS011;53900;51.468;-2.586;2023-06-19T05:53:31;11.48;;;6.85;;
66966;SDS011;53900;51.468;-2.586;2023-06-19T05:55:56;11.98;;;6.45;;
66966;SDS011;53900;51.468;-2.586;2023-06-19T05:58:23;20.40;;;7.18;;
66966;SDS011;53900;51.468;-2.586;2023-06-19T06:00:50;14.85;;;7.82;;
66966;SDS011;53900;51.468;-2.586;2023-06-19T06:03:15;15.88;;;7.13;;
66966;SDS011;53900;51.468;-2.586;2023-06-19T06:05:41;15.20;;;6.78;;
66966;SDS011;53900;51.468;-2.586;2023-06-19T06:08:06;17.20;;;7.20;;
66966;SDS011;53900;51.468;-2.586;2023-06-19T06:10:32;13.48;;;6.45;;
66966;SDS011;53900;51.468;-2.586;2023-06-19T06:12:57;14.70;;;6.65;;
66966;SDS011;53900;51.468;-2.586;2023-06-19T06:15:22;14.80;;;6.22;;
66966;SDS011;53900;51.468;-2.586;2023-06-19T06:17:48;11.80;;;6.22;;
66966;SDS011;53900;51.468;-2.586;2023-06-19T06:20:13;17.02;;;6.22;;
66966;SDS011;53900;51.468;-2.586;2023-06-19T06:22:39;16.52;;;6.57;;
66966;SDS011;53900;51.468;-2.586;2023-06-19T06:25:04;12.05;;;5.72;;
66966;SDS011;53900;51.468;-2.586;2023-06-19T06:27:29;13.82;;;6.32;;
66966;SDS011;53900;51.468;-2.586;2023-06-19T06:29:55;13.20;;;6.10;;
66966;SDS011;53900;51.468;-2.586;2023-06-19T06:32:20;11.93;;;6.03;;
66966;SDS011;53900;51.468;-2.586;2023-06-19T06:34:45;13.70;;;6.45;;
66966;SDS011;53900;51.468;-2.586;2023-06-19T06:37:11;14.38;;;6.25;;
66966;SDS011;53900;51.468;-2.586;2023-06-19T06:39:36;15.57;;;5.93;;
66966;SDS011;53900;51.468;-2.586;2023-06-19T06:42:01;14.07;;;6.00;;
66966;SDS011;53900;51.468;-2.586;2023-06-19T06:44:27;14.13;;;5.50;;
66966;SDS011;53900;51.468;-2.586;2023-06-19T06:46:52;14.52;;;5.60;;
66966;SDS011;53900;51.468;-2.586;2023-06-19T06:49:17;13.25;;;5.53;;
66966;SDS011;53900;51.468;-2.586;2023-06-19T06:51:42;17.88;;;5.50;;
66966;SDS011;53900;51.468;-2.586;2023-06-19T06:54:08;12.93;;;6.13;;
66966;SDS011;53900;51.468;-2.586;2023-06-19T06:56:33;10.45;;;5.38;;
66966;SDS011;53900;51.468;-2.586;2023-06-19T06:58:58;10.82;;;5.35;;
66966;SDS011;53900;51.468;-2.586;2023-06-19T07:01:23;11.27;;;5.22;;
66966;SDS011;53900;51.468;-2.586;2023-06-19T07:03:49;14.70;;;5.30;;
66966;SDS011;53900;51.468;-2.586;2023-06-19T07:06:14;12.87;;;4.73;;
66966;SDS011;53900;51.468;-2.586;2023-06-19T07:08:39;18.52;;;5.20;;
66966;SDS011;53900;51.468;-2.586;2023-06-19T07:11:06;11.25;;;5.15;;
66966;SDS011;53900;51.468;-2.586;2023-06-19T07:13:31;11.90;;;5.47;;
66966;SDS011;53900;51.468;-2.586;2023-06-19T07:15:56;7.82;;;4.22;;
66966;SDS011;53900;51.468;-2.586;2023-06-19T07:18:23;11.25;;;4.50;;
66966;SDS011;53900;51.468;-2.586;2023-06-19T07:20:48;10.65;;;3.70;;
66966;SDS011;53900;51.468;-2.586;2023-06-19T07:23:13;11.18;;;3.88;;
66966;SDS011;53900;51.468;-2.586;2023-06-19T07:25:39;16.52;;;3.88;;
66966;SDS011;53900;51.468;-2.586;2023-06-19T07:28:04;8.17;;;3.57;;
66966;SDS011;53900;51.468;-2.586;2023-06-19T07:30:30;10.25;;;3.80;;
66966;SDS011;53900;51.468;-2.586;2023-06-19T07:32:55;9.75;;;3.72;;
66966;SDS011;53900;51.468;-2.586;2023-06-19T07:35:20;10.45;;;3.40;;
66966;SDS011;53900;51.468;-2.586;2023-06-19T07:37:45;7.67;;;3.30;;
66966;SDS011;53900;51.468;-2.586;2023-06-19T07:40:11;9.02;;;3.53;;
66966;SDS011;53900;51.468;-2.586;2023-06-19T07:42:36;8.15;;;4.07;;
66966;SDS011;53900;51.468;-2.586;2023-06-19T07:45:01;11.90;;;3.80;;
66966;SDS011;53900;51.468;-2.586;2023-06-19T07:47:27;11.20;;;3.88;;
66966;SDS011;53900;51.468;-2.586;2023-06-19T07:49:52;12.50;;;3.75;;
66966;SDS011;53900;51.468;-2.586;2023-06-19T07:52:18;9.27;;;3.70;;
66966;SDS011;53900;51.468;-2.586;2023-06-19T07:55:16;10.35;;;3.92;;
66966;SDS011;53900;51.468;-2.586;2023-06-19T07:57:35;11.45;;;3.75;;
66966;SDS011;53900;51.468;-2.586;2023-06-19T08:00:01;7.57;;;3.70;;
66966;SDS011;53900;51.468;-2.586;2023-06-19T08:02:32;9.48;;;4.13;;
66966;SDS011;53900;51.468;-2.586;2023-06-19T08:04:57;8.52;;;3.30;;
66966;SDS011;53900;51.468;-2.586;2023-06-19T08:07:22;9.13;;;3.38;;
66966;SDS011;53900;51.468;-2.586;2023-06-19T08:09:47;12.45;;;3.30;;
66966;SDS011;53900;51.468;-2.586;2023-06-19T08:12:13;5.30;;;3.08;;
66966;SDS011;53900;51.468;-2.586;2023-06-19T08:14:39;9.20;;;3.42;;
66966;SDS011;53900;51.468;-2.586;2023-06-19T08:17:04;7.30;;;3.58;;
66966;SDS011;53900;51.468;-2.586;2023-06-19T08:19:29;20.13;;;4.10;;
66966;SDS011;53900;51.468;-2.586;2023-06-19T08:21:54;10.23;;;2.92;;
66966;SDS011;53900;51.468;-2.586;2023-06-19T08:24:19;8.30;;;3.33;;
66966;SDS011;53900;51.468;-2.586;2023-06-19T08:26:45;8.63;;;2.85;;
66966;SDS011;53900;51.468;-2.586;2023-06-19T08:29:10;5.50;;;2.80;;
66966;SDS011;53900;51.468;-2.586;2023-06-19T08:31:35;7.93;;;3.08;;
66966;SDS011;53900;51.468;-2.586;2023-06-19T08:34:01;7.75;;;3.22;;
66966;SDS011;53900;51.468;-2.586;2023-06-19T08:36:31;8.85;;;2.97;;
66966;SDS011;53900;51.468;-2.586;2023-06-19T08:38:56;8.10;;;3.20;;
66966;SDS011;53900;51.468;-2.586;2023-06-19T08:41:21;8.33;;;3.07;;
66966;SDS011;53900;51.468;-2.586;2023-06-19T08:43:48;5.13;;;2.70;;
66966;SDS011;53900;51.468;-2.586;2023-06-19T08:46:17;7.55;;;2.72;;
66966;SDS011;53900;51.468;-2.586;2023-06-19T08:48:45;8.38;;;3.30;;
66966;SDS011;53900;51.468;-2.586;2023-06-19T08:51:11;11.10;;;2.88;;
66966;SDS011;53900;51.468;-2.586;2023-06-19T08:53:46;9.25;;;3.10;;
66966;SDS011;53900;51.468;-2.586;2023-06-19T08:56:12;11.18;;;3.38;;
66966;SDS011;53900;51.468;-2.586;2023-06-19T08:58:37;8.75;;;2.97;;
66966;SDS011;53900;51.468;-2.586;2023-06-19T09:01:03;8.82;;;3.00;;
66966;SDS011;53900;51.468;-2.586;2023-06-19T09:03:28;6.97;;;2.90;;
66966;SDS011;53900;51.468;-2.586;2023-06-19T09:05:53;7.70;;;2.88;;
66966;SDS011;53900;51.468;-2.586;2023-06-19T09:08:19;8.88;;;3.45;;
66966;SDS011;53900;51.468;-2.586;2023-06-19T09:13:21;4.82;;;2.88;;
66966;SDS011;53900;51.468;-2.586;2023-06-19T09:15:47;9.77;;;3.25;;
66966;SDS011;53900;51.468;-2.586;2023-06-19T09:18:12;12.70;;;3.23;;
66966;SDS011;53900;51.468;-2.586;2023-06-19T09:20:38;6.88;;;2.92;;
66966;SDS011;53900;51.468;-2.586;2023-06-19T09:23:05;9.30;;;2.97;;
66966;SDS011;53900;51.468;-2.586;2023-06-19T09:25:30;8.27;;;3.13;;
66966;SDS011;53900;51.468;-2.586;2023-06-19T09:27:56;8.75;;;2.92;;
66966;SDS011;53900;51.468;-2.586;2023-06-19T09:30:21;6.32;;;2.63;;
66966;SDS011;53900;51.468;-2.586;2023-06-19T09:32:47;8.88;;;3.08;;
66966;SDS011;53900;51.468;-2.586;2023-06-19T09:35:13;6.05;;;2.70;;
66966;SDS011;53900;51.468;-2.586;2023-06-19T09:37:39;7.55;;;3.08;;
66966;SDS011;53900;51.468;-2.586;2023-06-19T09:40:05;7.85;;;2.90;;
66966;SDS011;53900;51.468;-2.586;2023-06-19T09:42:36;7.78;;;2.70;;
66966;SDS011;53900;51.468;-2.586;2023-06-19T09:45:02;8.07;;;2.85;;
66966;SDS011;53900;51.468;-2.586;2023-06-19T09:47:35;4.55;;;2.50;;
66966;SDS011;53900;51.468;-2.586;2023-06-19T09:50:00;9.65;;;3.05;;
66966;SDS011;53900;51.468;-2.586;2023-06-19T09:52:26;5.00;;;2.60;;
66966;SDS011;53900;51.468;-2.586;2023-06-19T09:54:53;8.23;;;2.60;;
66966;SDS011;53900;51.468;-2.586;2023-06-19T09:57:18;3.97;;;2.35;;
66966;SDS011;53900;51.468;-2.586;2023-06-19T09:59:46;8.48;;;2.38;;
66966;SDS011;53900;51.468;-2.586;2023-06-19T10:02:11;5.80;;;2.33;;
66966;SDS011;53900;51.468;-2.586;2023-06-19T10:07:38;9.55;;;2.47;;
66966;SDS011;53900;51.468;-2.586;2023-06-19T10:10:04;7.68;;;2.28;;
66966;SDS011;53900;51.468;-2.586;2023-06-19T10:15:02;5.82;;;2.20;;
66966;SDS011;53900;51.468;-2.586;2023-06-19T10:17:32;14.07;;;2.80;;
66966;SDS011;53900;51.468;-2.586;2023-06-19T10:19:57;4.63;;;2.08;;
66966;SDS011;53900;51.468;-2.586;2023-06-19T10:22:22;6.20;;;2.10;;
66966;SDS011;53900;51.468;-2.586;2023-06-19T10:24:50;5.65;;;2.25;;
66966;SDS011;53900;51.468;-2.586;2023-06-19T10:27:20;7.07;;;2.35;;
66966;SDS011;53900;51.468;-2.586;2023-06-19T10:29:51;6.18;;;2.40;;
66966;SDS011;53900;51.468;-2.586;2023-06-19T10:32:16;5.47;;;2.17;;
66966;SDS011;53900;51.468;-2.586;2023-06-19T10:34:44;5.63;;;2.47;;
66966;SDS011;53900;51.468;-2.586;2023-06-19T10:37:10;8.65;;;2.50;;
66966;SDS011;53900;51.468;-2.586;2023-06-19T10:39:35;7.28;;;2.10;;
66966;SDS011;53900;51.468;-2.586;2023-06-19T10:42:00;7.80;;;2.40;;
66966;SDS011;53900;51.468;-2.586;2023-06-19T10:44:25;3.63;;;2.23;;
66966;SDS011;53900;51.468;-2.586;2023-06-19T10:46:52;4.53;;;2.15;;
66966;SDS011;53900;51.468;-2.586;2023-06-19T10:49:17;6.18;;;2.63;;
66966;SDS011;53900;51.468;-2.586;2023-06-19T10:51:42;4.32;;;2.00;;
66966;SDS011;53900;51.468;-2.586;2023-06-19T10:54:09;7.22;;;2.30;;
66966;SDS011;53900;51.468;-2.586;2023-06-19T10:56:34;5.85;;;2.03;;
66966;SDS011;53900;51.468;-2.586;2023-06-19T10:59:04;4.82;;;2.20;;
66966;SDS011;53900;51.468;-2.586;2023-06-19T11:03:59;8.03;;;2.27;;
66966;SDS011;53900;51.468;-2.586;2023-06-19T11:06:24;4.55;;;2.08;;
66966;SDS011;53900;51.468;-2.586;2023-06-19T11:08:52;4.60;;;1.85;;
66966;SDS011;53900;51.468;-2.586;2023-06-19T11:11:17;5.53;;;1.75;;
66966;SDS011;53900;51.468;-2.586;2023-06-19T11:13:43;6.75;;;2.03;;
66966;SDS011;53900;51.468;-2.586;2023-06-19T11:16:08;6.63;;;2.35;;
66966;SDS011;53900;51.468;-2.586;2023-06-19T11:18:33;5.70;;;2.30;;
66966;SDS011;53900;51.468;-2.586;2023-06-19T11:20:58;4.97;;;2.00;;
66966;SDS011;53900;51.468;-2.586;2023-06-19T11:23:25;6.70;;;2.10;;
66966;SDS011;53900;51.468;-2.586;2023-06-19T11:25:51;4.75;;;2.00;;
66966;SDS011;53900;51.468;-2.586;2023-06-19T11:28:17;3.92;;;1.80;;
66966;SDS011;53900;51.468;-2.586;2023-06-19T11:30:47;6.32;;;2.30;;
66966;SDS011;53900;51.468;-2.586;2023-06-19T11:33:17;9.27;;;2.28;;
66966;SDS011;53900;51.468;-2.586;2023-06-19T11:35:46;5.50;;;2.10;;
66966;SDS011;53900;51.468;-2.586;2023-06-19T11:38:15;8.48;;;2.17;;
66966;SDS011;53900;51.468;-2.586;2023-06-19T11:40:40;5.90;;;2.08;;
66966;SDS011;53900;51.468;-2.586;2023-06-19T11:43:06;6.00;;;2.13;;
66966;SDS011;53900;51.468;-2.586;2023-06-19T11:45:31;5.43;;;2.00;;
66966;SDS011;53900;51.468;-2.586;2023-06-19T11:47:56;4.43;;;2.10;;
66966;SDS011;53900;51.468;-2.586;2023-06-19T11:50:26;5.43;;;2.45;;
66966;SDS011;53900;51.468;-2.586;2023-06-19T11:52:51;10.35;;;2.05;;
66966;SDS011;53900;51.468;-2.586;2023-06-19T11:55:17;6.40;;;2.10;;
66966;SDS011;53900;51.468;-2.586;2023-06-19T11:57:42;4.30;;;2.13;;
66966;SDS011;53900;51.468;-2.586;2023-06-19T12:00:16;4.40;;;2.10;;
66966;SDS011;53900;51.468;-2.586;2023-06-19T12:02:43;7.05;;;2.13;;
66966;SDS011;53900;51.468;-2.586;2023-06-19T12:05:08;7.22;;;2.00;;
66966;SDS011;53900;51.468;-2.586;2023-06-19T12:07:34;4.95;;;2.05;;
66966;SDS011;53900;51.468;-2.586;2023-06-19T12:09:59;4.60;;;1.95;;
66966;SDS011;53900;51.468;-2.586;2023-06-19T12:12:24;5.07;;;2.20;;
66966;SDS011;53900;51.468;-2.586;2023-06-19T12:14:51;3.80;;;1.73;;
66966;SDS011;53900;51.468;-2.586;2023-06-19T12:17:16;7.20;;;1.80;;
66966;SDS011;53900;51.468;-2.586;2023-06-19T12:19:41;4.80;;;1.93;;
66966;SDS011;53900;51.468;-2.586;2023-06-19T12:22:06;4.43;;;2.00;;
66966;SDS011;53900;51.468;-2.586;2023-06-19T12:24:31;5.50;;;2.03;;
66966;SDS011;53900;51.468;-2.586;2023-06-19T12:26:57;5.60;;;1.92;;
66966;SDS011;53900;51.468;-2.586;2023-06-19T12:29:22;5.72;;;2.30;;
66966;SDS011;53900;51.468;-2.586;2023-06-19T12:31:47;5.77;;;2.20;;
66966;SDS011;53900;51.468;-2.586;2023-06-19T12:34:12;5.63;;;2.07;;
66966;SDS011;53900;51.468;-2.586;2023-06-19T12:36:37;4.17;;;1.60;;
66966;SDS011;53900;51.468;-2.586;2023-06-19T12:39:03;3.58;;;1.65;;
66966;SDS011;53900;51.468;-2.586;2023-06-19T12:41:31;4.38;;;1.83;;
66966;SDS011;53900;51.468;-2.586;2023-06-19T12:43:56;5.38;;;1.60;;
66966;SDS011;53900;51.468;-2.586;2023-06-19T12:46:21;3.73;;;1.57;;
66966;SDS011;53900;51.468;-2.586;2023-06-19T12:48:46;7.35;;;1.92;;
66966;SDS011;53900;51.468;-2.586;2023-06-19T12:51:15;5.30;;;1.85;;
66966;SDS011;53900;51.468;-2.586;2023-06-19T12:53:40;4.72;;;1.90;;
66966;SDS011;53900;51.468;-2.586;2023-06-19T12:56:05;7.63;;;1.60;;
66966;SDS011;53900;51.468;-2.586;2023-06-19T12:58:31;4.43;;;1.53;;
66966;SDS011;53900;51.468;-2.586;2023-06-19T13:00:56;4.23;;;1.77;;
66966;SDS011;53900;51.468;-2.586;2023-06-19T13:03:21;4.13;;;1.63;;
66966;SDS011;53900;51.468;-2.586;2023-06-19T13:05:46;3.10;;;1.50;;
66966;SDS011;53900;51.468;-2.586;2023-06-19T13:08:11;8.25;;;1.90;;
66966;SDS011;53900;51.468;-2.586;2023-06-19T13:10:37;9.20;;;1.70;;
66966;SDS011;53900;51.468;-2.586;2023-06-19T13:13:03;4.32;;;1.40;;
66966;SDS011;53900;51.468;-2.586;2023-06-19T13:15:30;2.85;;;1.73;;
66966;SDS011;53900;51.468;-2.586;2023-06-19T13:17:55;5.78;;;1.60;;
66966;SDS011;53900;51.468;-2.586;2023-06-19T13:20:20;2.97;;;1.50;;
66966;SDS011;53900;51.468;-2.586;2023-06-19T13:22:46;4.85;;;1.70;;
66966;SDS011;53900;51.468;-2.586;2023-06-19T13:25:11;4.77;;;1.77;;
66966;SDS011;53900;51.468;-2.586;2023-06-19T13:27:36;4.70;;;1.30;;
66966;SDS011;53900;51.468;-2.586;2023-06-19T13:30:01;4.03;;;1.50;;
66966;SDS011;53900;51.468;-2.586;2023-06-19T13:32:27;2.47;;;1.30;;
66966;SDS011;53900;51.468;-2.586;2023-06-19T13:34:52;4.90;;;1.97;;
66966;SDS011;53900;51.468;-2.586;2023-06-19T13:37:18;6.93;;;1.65;;
66966;SDS011;53900;51.468;-2.586;2023-06-19T13:39:43;4.13;;;1.20;;
66966;SDS011;53900;51.468;-2.586;2023-06-19T13:42:08;5.82;;;1.40;;
66966;SDS011;53900;51.468;-2.586;2023-06-19T13:44:33;5.00;;;1.80;;
66966;SDS011;53900;51.468;-2.586;2023-06-19T13:46:58;3.05;;;1.50;;
66966;SDS011;53900;51.468;-2.586;2023-06-19T13:49:24;9.77;;;1.57;;
66966;SDS011;53900;51.468;-2.586;2023-06-19T13:51:49;4.20;;;1.40;;
66966;SDS011;53900;51.468;-2.586;2023-06-19T13:54:15;4.15;;;1.58;;
66966;SDS011;53900;51.468;-2.586;2023-06-19T13:56:41;5.63;;;1.80;;
66966;SDS011;53900;51.468;-2.586;2023-06-19T13:59:07;3.83;;;1.40;;
66966;SDS011;53900;51.468;-2.586;2023-06-19T14:01:36;3.53;;;1.33;;
66966;SDS011;53900;51.468;-2.586;2023-06-19T14:04:01;6.80;;;1.60;;
66966;SDS011;53900;51.468;-2.586;2023-06-19T14:06:26;7.53;;;1.60;;
66966;SDS011;53900;51.468;-2.586;2023-06-19T14:08:51;6.70;;;1.60;;
66966;SDS011;53900;51.468;-2.586;2023-06-19T14:11:17;5.97;;;1.47;;
66966;SDS011;53900;51.468;-2.586;2023-06-19T14:13:43;5.15;;;1.58;;
66966;SDS011;53900;51.468;-2.586;2023-06-19T14:16:08;3.70;;;1.67;;
66966;SDS011;53900;51.468;-2.586;2023-06-19T14:18:33;5.00;;;1.60;;
66966;SDS011;53900;51.468;-2.586;2023-06-19T14:21:00;5.20;;;1.65;;
66966;SDS011;53900;51.468;-2.586;2023-06-19T14:23:25;2.83;;;1.52;;
66966;SDS011;53900;51.468;-2.586;2023-06-19T14:25:50;3.40;;;1.40;;
66966;SDS011;53900;51.468;-2.586;2023-06-19T14:28:15;3.00;;;1.60;;
66966;SDS011;53900;51.468;-2.586;2023-06-19T14:30:41;3.05;;;1.50;;